createdAt,value
2022-08-22T00:00:05.313Z,19.4
2022-08-22T00:02:02.436Z,19.4
2022-08-22T00:02:43.482Z,20.7
2022-08-22T00:02:49.791Z,20.1
2022-08-22T00:03:12.110Z,19.8
2022-08-22T00:04:12.551Z,19.4
2022-08-22T00:06:05.869Z,19.4
2022-08-22T00:08:06.378Z,19.4
2022-08-22T00:10:01.242Z,19.4
2022-08-22T00:12:07.523Z,19.3
2022-08-22T00:14:04.453Z,19.3
2022-08-22T00:16:05.874Z,19.3
2022-08-22T00:18:09.034Z,19.2
2022-08-22T00:20:06.697Z,19.2
2022-08-22T00:22:04.367Z,19.2
2022-08-22T00:24:12.770Z,19.2
2022-08-22T00:26:03.727Z,19
2022-08-22T00:28:05.350Z,19.1
2022-08-22T00:30:07.611Z,19.1
2022-08-22T00:32:10.297Z,18.9
2022-08-22T00:34:06.489Z,18.9
2022-08-22T00:36:12.285Z,18.9
2022-08-22T00:38:06.451Z,18.9
2022-08-22T00:40:19.994Z,18.9
2022-08-22T00:42:32.123Z,18.8
2022-08-22T00:44:22.200Z,18.8
2022-08-22T00:46:21.532Z,18.8
2022-08-22T00:48:21.118Z,18.7
2022-08-22T00:50:25.410Z,18.7
2022-08-22T00:52:23.438Z,18.7
2022-08-22T00:54:17.709Z,18.6
2022-08-22T00:56:27.223Z,18.6
2022-08-22T00:58:34.797Z,18.5
2022-08-22T01:00:12.106Z,18.5
2022-08-22T01:02:22.982Z,18.4
2022-08-22T01:04:29.928Z,18.4
2022-08-22T01:06:21.356Z,18.4
2022-08-22T01:08:22.945Z,18.4
2022-08-22T01:10:22.062Z,18.4
2022-08-22T01:12:19.271Z,18.4
2022-08-22T01:14:35.025Z,18.4
2022-08-22T01:16:33.811Z,18.4
2022-08-22T01:18:32.992Z,18.3
2022-08-22T01:20:33.621Z,18.1
2022-08-22T01:22:30.719Z,18.1
2022-08-22T01:24:39.142Z,18
2022-08-22T01:26:41.164Z,18
2022-08-22T01:28:33.156Z,17.9
2022-08-22T01:30:31.557Z,17.8
2022-08-22T01:32:38.890Z,17.8
2022-08-22T01:34:38.095Z,17.8
2022-08-22T01:36:40.018Z,17.7
2022-08-22T01:38:33.652Z,17.6
2022-08-22T01:40:37.376Z,17.6
2022-08-22T01:42:36.398Z,17.6
2022-08-22T01:44:28.903Z,17.6
2022-08-22T01:46:29.344Z,17.6
2022-08-22T01:48:19.750Z,17.6
2022-08-22T01:50:24.901Z,17.6
2022-08-22T01:52:20.038Z,17.6
2022-08-22T01:54:29.375Z,17.6
2022-08-22T01:56:20.204Z,17.6
2022-08-22T01:58:19.651Z,17.5
2022-08-22T02:00:18.715Z,17.3
2022-08-22T02:02:31.530Z,17.3
2022-08-22T02:04:27.376Z,17.3
2022-08-22T02:06:28.552Z,17.1
2022-08-22T02:08:27.364Z,17
2022-08-22T02:10:24.628Z,17
2022-08-22T02:12:29.398Z,17
2022-08-22T02:14:32.795Z,17
2022-08-22T02:16:31.260Z,17
2022-08-22T02:18:25.879Z,17.1
2022-08-22T02:20:24.778Z,17.2
2022-08-22T02:22:32.142Z,17.2
2022-08-22T02:24:28.138Z,17.2
2022-08-22T02:26:25.180Z,17.2
2022-08-22T02:28:42.407Z,17.1
2022-08-22T02:30:27.633Z,17.1
2022-08-22T02:32:27.514Z,17.1
2022-08-22T02:34:34.530Z,17.1
2022-08-22T02:36:28.655Z,17.1
2022-08-22T02:38:29.005Z,17.2
2022-08-22T02:40:29.880Z,17.3
2022-08-22T02:42:28.485Z,17.1
2022-08-22T02:44:29.472Z,17.3
2022-08-22T02:46:29.595Z,17.3
2022-08-22T02:48:36.083Z,17.4
2022-08-22T02:50:33.955Z,17.3
2022-08-22T02:52:28.967Z,17.3
2022-08-22T02:54:34.865Z,17.3
2022-08-22T02:56:31.651Z,17.3
2022-08-22T02:58:33.901Z,17.2
2022-08-22T03:00:32.682Z,17.2
2022-08-22T03:02:32.882Z,17.2
2022-08-22T03:04:45.126Z,17.2
2022-08-22T03:06:35.918Z,17.2
2022-08-22T03:08:30.125Z,17.3
2022-08-22T03:10:31.658Z,17.3
2022-08-22T03:12:37.542Z,17.4
2022-08-22T03:14:34.852Z,17.3
2022-08-22T03:16:35.269Z,17.3
2022-08-22T03:18:42.597Z,17.2
2022-08-22T03:20:42.309Z,17.2
2022-08-22T03:22:40.779Z,17.2
2022-08-22T03:24:36.711Z,17.4
2022-08-22T03:26:40.377Z,17.4
2022-08-22T03:28:33.205Z,17.6
2022-08-22T03:30:36.979Z,17.6
2022-08-22T03:32:48.701Z,17.7
2022-08-22T03:34:31.318Z,17.8
2022-08-22T03:36:34.094Z,17.8
2022-08-22T03:38:47.105Z,17.9
2022-08-22T03:40:48.715Z,18
2022-08-22T03:42:58.194Z,18.2
2022-08-22T03:44:58.425Z,18.4
2022-08-22T03:46:50.975Z,18.5
2022-08-22T03:49:00.953Z,18.5
2022-08-22T03:51:03.318Z,18.5
2022-08-22T03:52:59.816Z,18.7
2022-08-22T03:54:57.648Z,18.9
2022-08-22T03:57:07.587Z,19
2022-08-22T03:59:01.053Z,19
2022-08-22T04:00:59.248Z,19
2022-08-22T04:03:03.001Z,19.1
2022-08-22T04:04:57.298Z,19.3
2022-08-22T04:07:04.068Z,19.3
2022-08-22T04:08:54.771Z,19.3
2022-08-22T04:10:55.803Z,19.2
2022-08-22T04:12:58.472Z,19.2
2022-08-22T04:14:55.352Z,19.2
2022-08-22T04:17:04.727Z,19
2022-08-22T04:19:08.027Z,19.2
2022-08-22T04:21:05.461Z,19.2
2022-08-22T04:22:59.655Z,19.2
2022-08-22T04:24:52.070Z,19
2022-08-22T04:26:46.174Z,19
2022-08-22T04:28:45.974Z,19.1
2022-08-22T04:30:48.063Z,19.1
2022-08-22T04:32:45.110Z,19.1
2022-08-22T04:34:46.615Z,19.1
2022-08-22T04:36:46.345Z,19.1
2022-08-22T04:38:49.695Z,19.3
2022-08-22T04:40:49.173Z,19.3
2022-08-22T04:42:50.981Z,19.3
2022-08-22T04:44:51.441Z,19.3
2022-08-22T04:46:51.857Z,19.3
2022-08-22T04:49:01.930Z,19.2
2022-08-22T04:50:52.834Z,19.4
2022-08-22T04:53:02.345Z,19.4
2022-08-22T04:54:57.091Z,19.7
2022-08-22T04:57:00.815Z,19.9
2022-08-22T04:58:55.928Z,20.1
2022-08-22T05:00:59.971Z,20.2
2022-08-22T05:02:51.782Z,20.4
2022-08-22T05:04:56.386Z,20.4
2022-08-22T05:07:02.261Z,20.2
2022-08-22T05:08:53.788Z,20.4
2022-08-22T05:10:51.256Z,20.5
2022-08-22T05:13:05.430Z,20.5
2022-08-22T05:14:54.608Z,20.5
2022-08-22T05:16:54.955Z,20.7
2022-08-22T05:18:56.017Z,20.6
2022-08-22T05:20:53.934Z,20.6
2022-08-22T05:22:58.351Z,20.5
2022-08-22T05:24:59.138Z,20.7
2022-08-22T05:26:56.675Z,20.9
2022-08-22T05:28:59.360Z,21.1
2022-08-22T05:30:55.999Z,21.2
2022-08-22T05:33:05.154Z,21.4
2022-08-22T05:34:59.271Z,21.5
2022-08-22T05:36:57.842Z,21.8
2022-08-22T05:38:58.502Z,21.8
2022-08-22T05:41:01.305Z,21.8
2022-08-22T05:42:58.132Z,22
2022-08-22T05:44:59.969Z,22.2
2022-08-22T05:47:02.716Z,22.1
2022-08-22T05:49:00.973Z,22.3
2022-08-22T05:51:11.164Z,22.2
2022-08-22T05:53:05.009Z,22.3
2022-08-22T05:55:04.986Z,22.3
2022-08-22T05:57:08.693Z,22.3
2022-08-22T05:59:08.164Z,22.5
2022-08-22T06:01:22.118Z,22.8
2022-08-22T06:03:12.328Z,22.6
2022-08-22T06:05:09.866Z,22.6
2022-08-22T06:07:07.500Z,22.7
2022-08-22T06:09:07.927Z,22.8
2022-08-22T06:11:08.231Z,22.7
2022-08-22T06:13:11.408Z,22.7
2022-08-22T06:15:13.630Z,22.7
2022-08-22T06:17:08.651Z,22.9
2022-08-22T06:19:05.340Z,23
2022-08-22T06:21:10.576Z,23.2
2022-08-22T06:23:07.526Z,23.4
2022-08-22T06:25:12.955Z,23.7
2022-08-22T06:27:12.277Z,24.2
2022-08-22T06:29:09.147Z,24.5
2022-08-22T06:31:15.098Z,24.1
2022-08-22T06:33:12.408Z,24
2022-08-22T06:35:16.497Z,23.8
2022-08-22T06:37:14.658Z,23.8
2022-08-22T06:39:18.053Z,24.2
2022-08-22T06:41:10.333Z,24.3
2022-08-22T06:43:11.498Z,24.3
2022-08-22T06:45:16.677Z,24
2022-08-22T06:47:18.382Z,24.3
2022-08-22T06:49:14.120Z,24.6
2022-08-22T06:51:16.130Z,24.7
2022-08-22T06:53:18.068Z,25
2022-08-22T06:55:14.847Z,25
2022-08-22T06:57:29.549Z,25.4
2022-08-22T06:59:18.929Z,25.8
2022-08-22T07:01:19.947Z,26
2022-08-22T07:03:24.747Z,26
2022-08-22T07:05:21.490Z,26.3
2022-08-22T07:07:19.604Z,26.2
2022-08-22T07:09:23.989Z,26
2022-08-22T07:11:24.705Z,26
2022-08-22T07:13:19.957Z,25.8
2022-08-22T07:15:31.329Z,25.9
2022-08-22T07:17:23.989Z,25.9
2022-08-22T07:19:24.863Z,26.1
2022-08-22T07:21:25.471Z,25.8
2022-08-22T07:23:30.222Z,25.7
2022-08-22T07:25:24.722Z,25.7
2022-08-22T07:27:39.690Z,25.6
2022-08-22T07:29:30.724Z,25.6
2022-08-22T07:31:32.818Z,25.8
2022-08-22T07:33:38.330Z,25.9
2022-08-22T07:35:29.858Z,25.9
2022-08-22T07:37:36.661Z,25.9
2022-08-22T07:39:33.988Z,25.9
2022-08-22T07:41:37.393Z,26.3
2022-08-22T07:43:32.592Z,26.6
2022-08-22T07:45:36.735Z,26.5
2022-08-22T07:47:49.565Z,26.4
2022-08-22T07:49:36.040Z,26.4
2022-08-22T07:51:34.483Z,26.4
2022-08-22T07:53:40.832Z,26.4
2022-08-22T07:55:32.623Z,26.6
2022-08-22T07:57:36.783Z,26.5
2022-08-22T07:59:36.320Z,26.9
2022-08-22T08:01:34.369Z,26.9
2022-08-22T08:03:34.839Z,26.9
2022-08-22T08:05:37.743Z,27.3
2022-08-22T08:07:39.911Z,27.4
2022-08-22T08:09:40.574Z,27.7
2022-08-22T08:11:41.117Z,27.7
2022-08-22T08:13:45.168Z,27.8
2022-08-22T08:15:38.974Z,27.8
2022-08-22T08:17:39.838Z,27.6
2022-08-22T08:19:41.810Z,27.6
2022-08-22T08:21:46.096Z,27.6
2022-08-22T08:23:45.234Z,27.6
2022-08-22T08:25:53.452Z,27.9
2022-08-22T08:27:41.679Z,27.9
2022-08-22T08:29:53.040Z,27.7
2022-08-22T08:31:44.849Z,27.5
2022-08-22T08:33:47.009Z,27.4
2022-08-22T08:36:03.015Z,27.4
2022-08-22T08:37:47.790Z,27
2022-08-22T08:39:49.303Z,27
2022-08-22T08:42:15.377Z,27.2
2022-08-22T08:43:59.562Z,27.3
2022-08-22T08:46:15.509Z,27.5
2022-08-22T08:48:08.483Z,27.5
2022-08-22T08:50:03.332Z,27.6
2022-08-22T08:52:08.681Z,27.6
2022-08-22T08:54:06.776Z,27.8
2022-08-22T08:55:57.292Z,27.7
2022-08-22T08:56:21.804Z,27.7
2022-08-22T08:56:35.212Z,27.7
2022-08-22T08:58:06.828Z,27.9
2022-08-22T09:00:02.530Z,28.1
2022-08-22T09:02:07.266Z,28.4
2022-08-22T09:04:20.365Z,28.6
2022-08-22T09:06:10.816Z,28.4
2022-08-22T09:08:22.850Z,28.6
2022-08-22T09:10:19.193Z,28.6
2022-08-22T09:12:22.747Z,28.6
2022-08-22T09:14:09.928Z,28.7
2022-08-22T09:16:11.560Z,28.4
2022-08-22T09:18:13.303Z,28.5
2022-08-22T09:20:17.730Z,28.5
2022-08-22T09:22:14.197Z,28.4
2022-08-22T09:24:26.315Z,28.4
2022-08-22T09:26:01.348Z,28.5
2022-08-22T09:28:03.975Z,28.6
2022-08-22T09:30:07.722Z,28.8
2022-08-22T09:32:07.387Z,29
2022-08-22T09:34:09.506Z,28.8
2022-08-22T09:36:05.106Z,28.9
2022-08-22T09:38:25.150Z,29
2022-08-22T09:40:15.149Z,28.9
2022-08-22T09:42:10.812Z,29.1
2022-08-22T09:44:15.511Z,29.1
2022-08-22T09:46:12.093Z,29.1
2022-08-22T09:48:14.902Z,29.2
2022-08-22T09:50:12.804Z,29
2022-08-22T09:52:15.582Z,29
2022-08-22T09:54:20.721Z,29
2022-08-22T09:56:11.587Z,28.8
2022-08-22T09:58:18.680Z,28.7
2022-08-22T10:00:18.093Z,28.7
2022-08-22T10:02:23.029Z,28.9
2022-08-22T10:04:35.570Z,28.7
2022-08-22T10:06:17.136Z,28.7
2022-08-22T10:08:20.266Z,28.7
2022-08-22T10:10:26.558Z,28.7
2022-08-22T10:12:18.643Z,28.7
2022-08-22T10:14:22.327Z,28.5
2022-08-22T10:16:20.479Z,28.7
2022-08-22T10:18:28.272Z,28.8
2022-08-22T10:20:22.798Z,28.8
2022-08-22T10:22:22.561Z,28.8
2022-08-22T10:24:27.212Z,28.8
2022-08-22T10:26:39.125Z,28.8
2022-08-22T10:28:24.378Z,28.6
2022-08-22T10:30:19.526Z,28.6
2022-08-22T10:32:28.116Z,28.6
2022-08-22T10:34:23.038Z,28.6
2022-08-22T10:36:26.409Z,28.5
2022-08-22T10:38:25.219Z,28.5
2022-08-22T10:40:27.060Z,28.5
2022-08-22T10:42:28.443Z,28.4
2022-08-22T10:44:29.655Z,28.6
2022-08-22T10:46:28.160Z,28.7
2022-08-22T10:48:31.163Z,28.7
2022-08-22T10:50:31.162Z,28.7
2022-08-22T10:52:26.919Z,28.8
2022-08-22T10:54:34.756Z,28.6
2022-08-22T10:56:33.340Z,28.8
2022-08-22T10:58:27.354Z,28.7
2022-08-22T11:00:46.430Z,28.7
2022-08-22T11:02:42.164Z,28.7
2022-08-22T11:04:47.638Z,28.4
2022-08-22T11:06:34.424Z,28.4
2022-08-22T11:08:47.320Z,28.5
2022-08-22T11:10:40.333Z,28.5
2022-08-22T11:12:35.070Z,28.3
2022-08-22T11:15:00.443Z,28.3
2022-08-22T11:16:47.695Z,28.3
2022-08-22T11:18:57.773Z,28.4
2022-08-22T11:20:43.212Z,28.4
2022-08-22T11:22:41.875Z,28.4
2022-08-22T11:25:04.395Z,28.5
2022-08-22T11:26:47.328Z,28.5
2022-08-22T11:28:56.027Z,28.5
2022-08-22T11:30:45.898Z,28.5
2022-08-22T11:32:40.231Z,28.7
2022-08-22T11:34:47.784Z,28.5
2022-08-22T11:36:41.502Z,28.5
2022-08-22T11:38:44.249Z,28.5
2022-08-22T11:40:44.735Z,28.5
2022-08-22T11:42:47.800Z,28.4
2022-08-22T11:44:50.897Z,28.4
2022-08-22T11:46:42.349Z,28.4
2022-08-22T11:48:48.874Z,28.4
2022-08-22T11:50:45.209Z,28.4
2022-08-22T11:52:59.752Z,28.4
2022-08-22T11:55:02.192Z,28.4
2022-08-22T11:56:47.469Z,28.4
2022-08-22T11:58:52.697Z,28.4
2022-08-22T12:00:53.321Z,28.4
2022-08-22T12:02:59.661Z,28.4
2022-08-22T12:04:50.564Z,28.4
2022-08-22T12:06:54.555Z,28.5
2022-08-22T12:09:12.031Z,28.5
2022-08-22T12:10:54.178Z,28.4
2022-08-22T12:12:58.384Z,28.6
2022-08-22T12:14:56.292Z,28.6
2022-08-22T12:17:02.421Z,28.6
2022-08-22T12:18:55.558Z,28.5
2022-08-22T12:21:15.918Z,28.5
2022-08-22T12:23:06.895Z,28.4
2022-08-22T12:25:05.244Z,28.4
2022-08-22T12:27:00.792Z,28.4
2022-08-22T12:29:15.810Z,28.4
2022-08-22T12:31:04.347Z,28.4
2022-08-22T12:33:13.512Z,28.2
2022-08-22T12:35:13.862Z,28.2
2022-08-22T12:37:05.270Z,28.2
2022-08-22T12:39:14.196Z,28.2
2022-08-22T12:41:13.154Z,28.2
2022-08-22T12:43:12.059Z,28.2
2022-08-22T12:45:14.549Z,28.2
2022-08-22T12:47:10.791Z,28.1
2022-08-22T12:49:08.666Z,28.1
2022-08-22T12:51:17.565Z,28.1
2022-08-22T12:53:20.040Z,28.2
2022-08-22T12:55:18.577Z,28.2
2022-08-22T12:57:23.784Z,28.2
2022-08-22T12:59:19.613Z,28.2
2022-08-22T13:01:05.331Z,28.3
2022-08-22T13:03:06.377Z,28.3
2022-08-22T13:05:10.000Z,28.3
2022-08-22T13:07:09.103Z,28.2
2022-08-22T13:09:11.195Z,28.2
2022-08-22T13:11:10.021Z,28.2
2022-08-22T13:13:12.115Z,28.1
2022-08-22T13:15:25.302Z,28.1
2022-08-22T13:17:24.399Z,28.1
2022-08-22T13:19:13.498Z,28.1
2022-08-22T13:21:14.494Z,28.1
2022-08-22T13:23:13.556Z,28.1
2022-08-22T13:25:25.397Z,28.1
2022-08-22T13:27:14.339Z,27.9
2022-08-22T13:29:39.066Z,27.9
2022-08-22T13:31:20.360Z,27.9
2022-08-22T13:33:13.825Z,27.9
2022-08-22T13:35:20.270Z,27.9
2022-08-22T13:37:15.949Z,27.8
2022-08-22T13:39:25.221Z,27.8
2022-08-22T13:41:18.758Z,27.8
2022-08-22T13:43:19.850Z,27.8
2022-08-22T13:45:20.755Z,27.7
2022-08-22T13:47:17.048Z,27.7
2022-08-22T13:49:19.801Z,27.7
2022-08-22T13:51:22.244Z,27.7
2022-08-22T13:53:26.454Z,27.7
2022-08-22T13:55:23.328Z,27.6
2022-08-22T13:57:23.906Z,27.6
2022-08-22T13:59:49.702Z,27.6
2022-08-22T14:01:28.751Z,27.6
2022-08-22T14:03:24.571Z,27.6
2022-08-22T14:05:24.547Z,27.6
2022-08-22T14:07:29.630Z,27.4
2022-08-22T14:09:32.729Z,27.4
2022-08-22T14:11:29.717Z,27.4
2022-08-22T14:13:34.596Z,27.4
2022-08-22T14:15:25.905Z,27.3
2022-08-22T14:17:27.853Z,27.3
2022-08-22T14:19:30.672Z,27.2
2022-08-22T14:21:40.066Z,27.2
2022-08-22T14:23:27.711Z,27.2
2022-08-22T14:25:27.582Z,27.1
2022-08-22T14:27:29.890Z,27.1
2022-08-22T14:29:31.886Z,27.1
2022-08-22T14:31:28.246Z,26.9
2022-08-22T14:33:34.088Z,26.9
2022-08-22T14:35:35.245Z,26.8
2022-08-22T14:37:34.318Z,26.8
2022-08-22T14:39:34.889Z,26.8
2022-08-22T14:41:55.603Z,26.8
2022-08-22T14:43:49.595Z,26.7
2022-08-22T14:45:35.757Z,26.7
2022-08-22T14:47:55.344Z,26.6
2022-08-22T14:49:47.144Z,26.6
2022-08-22T14:51:32.739Z,26.6
2022-08-22T14:53:35.255Z,26.6
2022-08-22T14:55:34.302Z,26.6
2022-08-22T14:57:40.076Z,26.5
2022-08-22T14:59:43.256Z,26.5
2022-08-22T15:01:53.744Z,26.5
2022-08-22T15:03:36.512Z,26.5
2022-08-22T15:05:48.594Z,26.4
2022-08-22T15:07:37.592Z,26.3
2022-08-22T15:09:41.853Z,26.3
2022-08-22T15:11:42.235Z,26.3
2022-08-22T15:13:48.612Z,26.3
2022-08-22T15:15:53.386Z,26.3
2022-08-22T15:17:44.009Z,26.2
2022-08-22T15:19:45.915Z,26.2
2022-08-22T15:21:41.575Z,26.1
2022-08-22T15:23:45.076Z,26.1
2022-08-22T15:25:47.074Z,26.1
2022-08-22T15:27:48.811Z,26
2022-08-22T15:29:49.953Z,26
2022-08-22T15:31:46.585Z,25.9
2022-08-22T15:33:45.872Z,25.9
2022-08-22T15:35:45.759Z,25.9
2022-08-22T15:37:56.107Z,25.8
2022-08-22T15:40:07.464Z,25.8
2022-08-22T15:41:47.856Z,25.8
2022-08-22T15:43:48.917Z,25.8
2022-08-22T15:45:49.849Z,25.7
2022-08-22T15:47:50.376Z,25.6
2022-08-22T15:49:52.261Z,25.6
2022-08-22T15:52:04.876Z,25.6
2022-08-22T15:54:00.292Z,25.6
2022-08-22T15:56:21.021Z,25.6
2022-08-22T15:58:00.649Z,25.6
2022-08-22T15:59:55.670Z,25.6
2022-08-22T16:01:56.064Z,25.4
2022-08-22T16:03:56.707Z,25.4
2022-08-22T16:05:55.944Z,25.4
2022-08-22T16:08:03.114Z,25.3
2022-08-22T16:09:58.166Z,25.3
2022-08-22T16:11:56.690Z,25.2
2022-08-22T16:14:15.481Z,25.2
2022-08-22T16:16:00.360Z,25.2
2022-08-22T16:17:55.914Z,25.2
2022-08-22T16:20:25.732Z,25.2
2022-08-22T16:22:08.429Z,25.1
2022-08-22T16:24:26.689Z,25.1
2022-08-22T16:26:09.288Z,25
2022-08-22T16:27:58.589Z,24.9
2022-08-22T16:30:05.241Z,24.9
2022-08-22T16:32:06.071Z,24.9
2022-08-22T16:34:23.410Z,24.9
2022-08-22T16:36:37.982Z,24.9
2022-08-22T16:38:01.433Z,24.8
2022-08-22T16:40:14.473Z,24.7
2022-08-22T16:42:22.367Z,24.7
2022-08-22T16:44:20.827Z,24.7
2022-08-22T16:46:26.081Z,24.7
2022-08-22T16:48:22.747Z,24.7
2022-08-22T16:50:21.877Z,24.7
2022-08-22T16:52:34.185Z,24.6
2022-08-22T16:54:09.818Z,24.6
2022-08-22T16:56:21.832Z,24.6
2022-08-22T16:58:16.149Z,24.5
2022-08-22T17:00:24.444Z,24.5
2022-08-22T17:02:36.444Z,24.4
2022-08-22T17:04:19.527Z,24.4
2022-08-22T17:06:27.104Z,24.4
2022-08-22T17:08:24.882Z,24.4
2022-08-22T17:10:28.103Z,24.3
2022-08-22T17:12:23.338Z,24.3
2022-08-22T17:14:21.933Z,24.3
2022-08-22T17:16:23.025Z,24.3
2022-08-22T17:18:34.600Z,24.3
2022-08-22T17:20:22.770Z,24.3
2022-08-22T17:22:29.132Z,24.3
2022-08-22T17:24:32.298Z,24.3
2022-08-22T17:26:21.563Z,24.3
2022-08-22T17:28:19.658Z,24.2
2022-08-22T17:30:21.710Z,24.2
2022-08-22T17:32:21.242Z,24.2
2022-08-22T17:34:29.081Z,24.2
2022-08-22T17:36:26.497Z,24
2022-08-22T17:38:26.457Z,24
2022-08-22T17:40:29.976Z,24
2022-08-22T17:42:36.752Z,24
2022-08-22T17:44:26.367Z,24
2022-08-22T17:46:35.536Z,24
2022-08-22T17:48:23.459Z,24
2022-08-22T17:50:25.785Z,23.9
2022-08-22T17:52:27.217Z,23.9
2022-08-22T17:54:29.551Z,23.9
2022-08-22T17:56:25.526Z,23.9
2022-08-22T17:58:37.379Z,23.8
2022-08-22T18:00:27.734Z,23.7
2022-08-22T18:02:26.860Z,23.7
2022-08-22T18:04:30.889Z,23.7
2022-08-22T18:06:27.013Z,23.7
2022-08-22T18:09:13.443Z,23.6
2022-08-22T18:10:37.505Z,23.6
2022-08-22T18:12:34.196Z,23.6
2022-08-22T18:14:35.321Z,23.5
2022-08-22T18:16:30.247Z,23.5
2022-08-22T18:18:32.453Z,23.3
2022-08-22T18:20:33.742Z,23.3
2022-08-22T18:22:32.237Z,23.3
2022-08-22T18:24:34.397Z,23.2
2022-08-22T18:26:32.999Z,23.2
2022-08-22T18:28:34.733Z,23.3
2022-08-22T18:30:33.078Z,23.4
2022-08-22T18:32:35.411Z,23.4
2022-08-22T18:33:51.204Z,23.4
2022-08-22T18:34:02.535Z,23.4
2022-08-22T18:34:36.676Z,23.4
2022-08-22T18:36:34.076Z,23.4
2022-08-22T18:38:34.937Z,23.4
2022-08-22T18:40:47.923Z,23.4
2022-08-22T18:42:38.469Z,23.4
2022-08-22T18:44:35.579Z,23.4
2022-08-22T18:46:42.812Z,23.3
2022-08-22T18:48:54.302Z,23.3
2022-08-22T18:50:35.795Z,23.1
2022-08-22T18:52:37.404Z,23.1
2022-08-22T18:54:42.822Z,23.1
2022-08-22T18:56:46.739Z,23.1
2022-08-22T18:59:01.947Z,23
2022-08-22T19:00:53.536Z,23
2022-08-22T19:03:00.486Z,23
2022-08-22T19:04:59.050Z,23
2022-08-22T19:06:55.355Z,22.8
2022-08-22T19:09:02.737Z,22.8
2022-08-22T19:10:48.497Z,22.8
2022-08-22T19:12:59.002Z,22.8
2022-08-22T19:15:03.329Z,22.8
2022-08-22T19:17:04.866Z,22.7
2022-08-22T19:18:50.231Z,22.7
2022-08-22T19:20:40.662Z,22.7
2022-08-22T19:22:40.600Z,22.5
2022-08-22T19:25:08.920Z,22.5
2022-08-22T19:26:43.342Z,22.5
2022-08-22T19:28:41.770Z,22.4
2022-08-22T19:30:44.306Z,22.4
2022-08-22T19:33:02.068Z,22.4
2022-08-22T19:34:46.998Z,22.4
2022-08-22T19:36:45.009Z,22.3
2022-08-22T19:38:54.882Z,22.2
2022-08-22T19:40:55.001Z,22
2022-08-22T19:42:45.249Z,21.9
2022-08-22T19:44:47.139Z,21.9
2022-08-22T19:46:59.065Z,21.9
2022-08-22T19:48:48.596Z,21.9
2022-08-22T19:51:01.640Z,21.8
2022-08-22T19:53:03.641Z,21.7
2022-08-22T19:55:00.803Z,21.6
2022-08-22T19:57:04.413Z,21.6
2022-08-22T19:59:03.564Z,21.5
2022-08-22T20:00:55.358Z,21.5
2022-08-22T20:02:58.839Z,21.5
2022-08-22T20:05:11.794Z,21.5
2022-08-22T20:07:00.162Z,21.3
2022-08-22T20:09:02.831Z,21.3
2022-08-22T20:11:03.367Z,21.3
2022-08-22T20:13:02.149Z,21.3
2022-08-22T20:14:52.662Z,21.3
2022-08-22T20:17:10.215Z,21.3
2022-08-22T20:19:12.037Z,21.4
2022-08-22T20:20:58.249Z,21.4
2022-08-22T20:23:02.655Z,21.4
2022-08-22T20:24:57.364Z,21.3
2022-08-22T20:27:13.303Z,21.3
2022-08-22T20:28:55.539Z,21.4
2022-08-22T20:30:57.964Z,21.4
2022-08-22T20:33:04.648Z,21.2
2022-08-22T20:34:59.992Z,21.2
2022-08-22T20:37:22.668Z,21.1
2022-08-22T20:39:00.801Z,21.1
2022-08-22T20:41:11.815Z,21.1
2022-08-22T20:43:04.461Z,21.1
2022-08-22T20:44:59.873Z,21.1
2022-08-22T20:47:04.580Z,21
2022-08-22T20:49:00.693Z,21
2022-08-22T20:51:03.356Z,21
2022-08-22T20:53:19.943Z,20.9
2022-08-22T20:55:06.065Z,20.9
2022-08-22T20:57:10.551Z,20.7
2022-08-22T20:59:15.103Z,20.6
2022-08-22T21:01:02.519Z,20.6
2022-08-22T21:03:08.308Z,20.4
2022-08-22T21:05:06.601Z,20.4
2022-08-22T21:07:03.213Z,20.4
2022-08-22T21:09:13.994Z,20.3
2022-08-22T21:11:05.978Z,20.3
2022-08-22T21:13:08.687Z,20.3
2022-08-22T21:15:05.747Z,20.3
2022-08-22T21:17:23.287Z,20.3
2022-08-22T21:19:16.841Z,20.2
2022-08-22T21:21:10.501Z,20.2
2022-08-22T21:23:11.062Z,20.2
2022-08-22T21:25:08.360Z,20.2
2022-08-22T21:27:08.048Z,20.1
2022-08-22T21:29:20.752Z,20.1
2022-08-22T21:31:12.419Z,20.1
2022-08-22T21:33:14.175Z,20
2022-08-22T21:35:23.430Z,20
2022-08-22T21:37:15.937Z,20
2022-08-22T21:39:16.584Z,20
2022-08-22T21:41:13.434Z,20
2022-08-22T21:43:13.005Z,20
2022-08-22T21:45:26.822Z,20
2022-08-22T21:47:19.191Z,19.9
2022-08-22T21:49:20.582Z,19.9
2022-08-22T21:51:27.930Z,19.8
2022-08-22T21:53:26.461Z,19.8
2022-08-22T21:55:16.381Z,19.7
2022-08-22T21:57:17.683Z,19.7
2022-08-22T21:59:25.560Z,19.7
2022-08-22T22:01:31.582Z,19.7
2022-08-22T22:03:16.392Z,19.7
2022-08-22T22:05:17.418Z,19.7
2022-08-22T22:07:15.609Z,19.7
2022-08-22T22:09:16.151Z,19.7
2022-08-22T22:11:16.968Z,19.7
2022-08-22T22:13:19.446Z,19.7
2022-08-22T22:15:21.065Z,19.7
2022-08-22T22:17:19.009Z,19.7
2022-08-22T22:19:17.692Z,19.6
2022-08-22T22:21:18.281Z,19.6
2022-08-22T22:23:18.910Z,19.6
2022-08-22T22:25:39.624Z,19.6
2022-08-22T22:27:19.280Z,19.5
2022-08-22T22:29:19.706Z,19.4
2022-08-22T22:31:20.027Z,19.4
2022-08-22T22:33:25.058Z,19.4
2022-08-22T22:35:21.017Z,19.4
2022-08-22T22:37:21.311Z,19.4
2022-08-22T22:39:21.684Z,19.4
2022-08-22T22:41:22.142Z,19.4
2022-08-22T22:43:22.537Z,19.3
2022-08-22T22:45:22.845Z,19.3
2022-08-22T22:47:26.527Z,19.3
2022-08-22T22:49:24.069Z,19.3
2022-08-22T22:51:24.277Z,19.3
2022-08-22T22:53:28.579Z,19.2
2022-08-22T22:55:25.311Z,19.2
2022-08-22T22:57:25.851Z,19.2
2022-08-22T22:59:25.665Z,19.2
2022-08-22T23:01:26.193Z,19.2
2022-08-22T23:03:26.312Z,19.2
2022-08-22T23:05:26.983Z,19.2
2022-08-22T23:07:27.201Z,19.2
2022-08-22T23:09:32.414Z,19.2
2022-08-22T23:11:29.588Z,19.2
2022-08-22T23:13:28.192Z,19.2
2022-08-22T23:15:28.601Z,19.2
2022-08-22T23:17:29.142Z,19.2
2022-08-22T23:19:30.034Z,19.1
2022-08-22T23:21:29.928Z,19.1
2022-08-22T23:23:30.107Z,19.1
2022-08-22T23:25:30.800Z,19.1
2022-08-22T23:27:30.905Z,19.2
2022-08-22T23:29:31.450Z,19.2
2022-08-22T23:31:34.591Z,19.2
2022-08-22T23:33:33.039Z,19.2
2022-08-22T23:35:32.403Z,19.2
2022-08-22T23:37:33.066Z,19.3
2022-08-22T23:39:34.729Z,19.3
2022-08-22T23:41:33.935Z,19.3
2022-08-22T23:43:34.037Z,19.1
2022-08-22T23:45:34.244Z,19.1
2022-08-22T23:47:34.576Z,19
2022-08-22T23:49:37.080Z,19
2022-08-22T23:51:35.522Z,19
2022-08-22T23:53:36.493Z,19
2022-08-22T23:55:36.121Z,19
2022-08-22T23:57:36.513Z,19
2022-08-22T23:59:38.042Z,19
